createdAt,value
2018-05-11T00:01:50.871Z,99883.45
2018-05-11T00:05:53.356Z,99880.84
2018-05-11T00:09:55.808Z,99877.18
2018-05-11T00:13:58.286Z,99883.76
2018-05-11T00:18:00.771Z,99873.85
2018-05-11T00:22:03.236Z,99880.92
2018-05-11T00:26:05.711Z,99883.57
2018-05-11T00:30:08.190Z,99883.07
2018-05-11T00:34:10.715Z,99877.34
2018-05-11T00:38:13.182Z,99881.05
2018-05-11T00:42:15.667Z,99879.63
2018-05-11T00:46:18.168Z,99876.52
2018-05-11T00:50:26.061Z,99871.61
2018-05-11T00:54:28.526Z,99874.28
2018-05-11T00:58:31.017Z,99877.86
2018-05-11T01:02:33.481Z,99875.66
2018-05-11T01:06:35.967Z,99869.50
2018-05-11T01:10:38.448Z,99877.56
2018-05-11T01:14:40.939Z,99872.30
2018-05-11T01:18:43.400Z,99871.48
2018-05-11T01:22:45.884Z,99866.23
2018-05-11T01:26:48.368Z,99867.31
2018-05-11T01:30:50.854Z,99858.11
2018-05-11T01:34:53.339Z,99851.65
2018-05-11T01:38:55.830Z,99854.92
2018-05-11T01:42:58.286Z,99847.95
2018-05-11T01:47:00.764Z,99846.73
2018-05-11T01:51:03.250Z,99851.73
2018-05-11T01:55:05.729Z,99850.91
2018-05-11T01:59:08.203Z,99850.13
2018-05-11T02:03:10.683Z,99855.97
2018-05-11T02:07:13.146Z,99848.53
2018-05-11T02:11:15.631Z,99840.17
2018-05-11T02:15:18.091Z,99838.92
2018-05-11T02:19:20.577Z,99838.53
2018-05-11T02:23:23.054Z,99833.28
2018-05-11T02:27:25.503Z,99830.39
2018-05-11T02:31:27.983Z,99842.03
2018-05-11T02:35:30.463Z,99849.64
2018-05-11T02:39:32.922Z,99847.06
2018-05-11T02:43:35.407Z,99858.27
2018-05-11T02:47:37.891Z,99855.30
2018-05-11T02:51:40.356Z,99863.02
2018-05-11T02:55:42.840Z,99873.80
2018-05-11T02:59:45.324Z,99874.73
2018-05-11T03:03:47.791Z,99877.55
2018-05-11T03:07:50.272Z,99879.39
2018-05-11T03:11:52.748Z,99886.56
2018-05-11T03:15:55.229Z,99892.87
2018-05-11T03:19:57.675Z,99894.27
2018-05-11T03:24:00.155Z,99900.03
2018-05-11T03:28:02.641Z,99904.97
2018-05-11T03:32:05.125Z,99904.11
2018-05-11T03:36:07.614Z,99908.57
2018-05-11T03:40:10.099Z,99914.33
2018-05-11T03:44:12.560Z,99920.56
2018-05-11T03:48:15.069Z,99929.89
2018-05-11T03:52:17.537Z,99935.22
2018-05-11T03:56:20.024Z,99932.98
2018-05-11T04:00:22.507Z,99939.25
2018-05-11T04:04:36.824Z,99937.41
2018-05-11T04:08:43.651Z,99945.41
2018-05-11T04:12:46.124Z,99956.53
2018-05-11T04:16:48.605Z,99958.70
2018-05-11T04:20:51.107Z,99967.98
2018-05-11T04:24:53.591Z,99963.99
2018-05-11T04:28:56.153Z,99974.19
2018-05-11T04:32:58.586Z,99982.58
2018-05-11T04:37:01.039Z,99991.88
2018-05-11T04:41:03.536Z,99997.60
2018-05-11T04:45:06.000Z,100006.96
2018-05-11T04:49:08.500Z,100014.92
2018-05-11T04:53:10.990Z,100026.75
2018-05-11T04:57:13.502Z,100031.08
2018-05-11T05:01:15.996Z,100034.00
2018-05-11T05:05:18.475Z,100037.25
2018-05-11T05:09:20.971Z,100046.47
2018-05-11T05:13:23.446Z,100045.70
2018-05-11T05:17:25.952Z,100050.70
2018-05-11T05:21:28.417Z,100048.63
2018-05-11T05:25:30.914Z,100058.69
2018-05-11T05:29:33.415Z,100068.86
2018-05-11T05:33:35.921Z,100074.00
2018-05-11T05:37:38.422Z,100072.42
2018-05-11T05:41:40.895Z,100075.41
2018-05-11T05:45:43.425Z,100081.92
2018-05-11T05:49:45.917Z,100085.31
2018-05-11T05:53:48.382Z,100085.56
2018-05-11T05:57:50.888Z,100092.38
2018-05-11T06:01:53.360Z,100101.42
2018-05-11T06:05:55.854Z,100095.08
2018-05-11T06:09:58.337Z,100095.70
2018-05-11T06:14:00.822Z,100093.33
2018-05-11T06:18:03.309Z,100097.13
2018-05-11T06:22:05.913Z,100097.31
2018-05-11T06:26:08.305Z,100093.66
2018-05-11T06:30:11.694Z,100091.70
2018-05-11T06:34:14.181Z,100095.09
2018-05-11T06:38:16.660Z,100099.55
2018-05-11T06:42:19.155Z,100097.44
2018-05-11T06:46:21.620Z,100102.64
2018-05-11T06:50:24.124Z,100104.39
2018-05-11T06:54:26.619Z,100120.87
2018-05-11T06:58:29.087Z,100121.14
2018-05-11T07:02:31.580Z,100111.16
2018-05-11T07:06:34.055Z,100115.95
2018-05-11T07:10:36.538Z,100123.00
2018-05-11T07:14:39.033Z,100114.27
2018-05-11T07:18:41.518Z,100123.88
2018-05-11T07:22:44.023Z,100118.48
2018-05-11T07:26:46.484Z,100123.97
2018-05-11T07:30:49.990Z,100124.73
2018-05-11T07:34:52.560Z,100126.27
2018-05-11T07:38:54.989Z,100127.98
2018-05-11T07:42:57.467Z,100138.41
2018-05-11T07:46:59.961Z,100135.48
2018-05-11T07:51:02.453Z,100133.85
2018-05-11T07:55:04.947Z,100138.48
2018-05-11T07:59:07.404Z,100140.73
2018-05-11T08:03:09.905Z,100141.36
2018-05-11T08:07:12.399Z,100140.60
2018-05-11T08:11:14.889Z,100148.34
2018-05-11T08:15:17.392Z,100148.78
2018-05-11T08:19:19.875Z,100151.31
2018-05-11T08:23:22.363Z,100146.16
2018-05-11T08:27:24.885Z,100149.92
2018-05-11T08:31:27.389Z,100158.30
2018-05-11T08:35:29.890Z,100158.42
2018-05-11T08:39:32.396Z,100159.58
2018-05-11T08:43:34.898Z,100166.41
2018-05-11T08:47:37.376Z,100164.97
2018-05-11T08:51:39.876Z,100161.16
2018-05-11T08:55:42.369Z,100157.38
2018-05-11T08:59:44.868Z,100153.81
2018-05-11T09:03:47.360Z,100147.99
2018-05-11T09:07:49.919Z,100147.88
2018-05-11T09:11:52.399Z,100151.63
2018-05-11T09:15:54.906Z,100144.95
2018-05-11T09:19:57.366Z,100147.90
2018-05-11T09:23:59.852Z,100151.39
2018-05-11T09:28:02.355Z,100143.78
2018-05-11T09:32:04.881Z,100141.58
2018-05-11T09:36:07.366Z,100142.17
2018-05-11T09:40:10.809Z,100139.48
2018-05-11T09:44:13.312Z,100133.21
2018-05-11T09:48:15.789Z,100136.22
2018-05-11T09:52:18.282Z,100135.05
2018-05-11T09:56:20.792Z,100137.19
2018-05-11T10:00:26.253Z,100141.97
2018-05-11T10:04:28.747Z,100138.34
2018-05-11T10:08:31.227Z,100130.05
2018-05-11T10:12:33.750Z,100132.39
2018-05-11T10:16:36.251Z,100121.02
2018-05-11T10:20:38.739Z,100117.13
2018-05-11T10:24:41.242Z,100110.78
2018-05-11T10:28:43.754Z,100106.56
2018-05-11T10:32:46.236Z,100116.48
2018-05-11T10:36:48.725Z,100115.26
2018-05-11T10:40:51.314Z,100114.61
2018-05-11T10:44:53.775Z,100111.34
2018-05-11T10:48:56.274Z,100108.87
2018-05-11T10:52:58.766Z,100118.81
2018-05-11T10:57:01.254Z,100118.14
2018-05-11T11:01:03.757Z,100112.95
2018-05-11T11:05:06.221Z,100103.06
2018-05-11T11:09:08.715Z,100094.58
2018-05-11T11:13:11.207Z,100093.88
2018-05-11T11:17:13.680Z,100087.86
2018-05-11T11:21:16.175Z,100081.29
2018-05-11T11:25:18.679Z,100087.42
2018-05-11T11:29:21.167Z,100087.98
2018-05-11T11:33:23.660Z,100075.80
2018-05-11T11:37:26.136Z,100073.93
2018-05-11T11:41:28.627Z,100069.53
2018-05-11T11:45:31.110Z,100063.05
2018-05-11T11:49:33.608Z,100060.86
2018-05-11T11:53:36.108Z,100059.95
2018-05-11T11:57:38.599Z,100051.95
2018-05-11T12:01:41.233Z,100050.14
2018-05-11T12:05:43.666Z,100046.48
2018-05-11T12:09:46.166Z,100040.27
2018-05-11T12:13:48.659Z,100040.53
2018-05-11T12:17:51.140Z,100034.08
2018-05-11T12:21:53.651Z,100027.39
2018-05-11T12:25:56.160Z,100025.05
2018-05-11T12:29:58.651Z,100020.42
2018-05-11T12:34:01.152Z,100023.58
2018-05-11T12:38:03.618Z,100014.64
2018-05-11T12:42:06.116Z,100000.14
2018-05-11T12:46:08.618Z,99997.88
2018-05-11T12:50:11.103Z,99992.53
2018-05-11T12:54:13.629Z,99988.73
2018-05-11T12:58:16.133Z,99976.50
2018-05-11T13:02:18.640Z,99977.06
2018-05-11T13:06:21.131Z,99969.61
2018-05-11T13:10:23.619Z,99960.83
2018-05-11T13:14:26.135Z,99960.12
2018-05-11T13:18:28.662Z,99954.16
2018-05-11T13:22:31.159Z,99941.19
2018-05-11T13:26:33.618Z,99940.16
2018-05-11T13:30:36.160Z,99939.55
2018-05-11T13:34:38.616Z,99928.28
2018-05-11T13:38:41.202Z,99929.59
2018-05-11T13:42:43.661Z,99925.02
2018-05-11T13:46:46.141Z,99924.19
2018-05-11T13:50:48.631Z,99921.51
2018-05-11T13:54:51.123Z,99915.20
2018-05-11T13:58:53.623Z,99909.92
2018-05-11T14:02:56.089Z,99905.80
2018-05-11T14:06:58.576Z,99907.00
2018-05-11T14:11:01.118Z,99902.15
2018-05-11T14:15:03.561Z,99893.07
2018-05-11T14:19:06.014Z,99892.73
2018-05-11T14:23:08.561Z,99884.19
2018-05-11T14:27:11.068Z,99887.44
2018-05-11T14:31:13.550Z,99888.13
2018-05-11T14:35:16.039Z,99886.13
2018-05-11T14:39:18.550Z,99889.00
2018-05-11T14:43:22.106Z,99887.30
2018-05-11T14:47:24.591Z,99889.77
2018-05-11T14:51:27.054Z,99885.11
2018-05-11T14:55:29.533Z,99884.43
2018-05-11T14:59:32.016Z,99882.33
2018-05-11T15:03:34.499Z,99878.00
2018-05-11T15:07:36.994Z,99871.69
2018-05-11T15:11:39.494Z,99873.53
2018-05-11T15:15:41.957Z,99871.47
2018-05-11T15:19:44.445Z,99875.22
2018-05-11T15:23:46.933Z,99872.02
2018-05-11T15:27:49.416Z,99875.38
2018-05-11T15:31:51.896Z,99873.25
2018-05-11T15:35:54.382Z,99876.33
2018-05-11T15:39:56.867Z,99878.81
2018-05-11T15:43:59.360Z,99875.14
2018-05-11T15:48:01.848Z,99874.23
2018-05-11T15:52:04.366Z,99871.08
2018-05-11T15:56:06.861Z,99867.26
2018-05-11T16:00:09.349Z,99869.25
2018-05-11T16:04:11.829Z,99873.09
2018-05-11T16:08:14.300Z,99867.73
2018-05-11T16:12:16.793Z,99876.82
2018-05-11T16:16:19.279Z,99871.59
2018-05-11T16:20:21.744Z,99865.94
2018-05-11T16:24:24.236Z,99873.86
2018-05-11T16:28:26.692Z,99874.73
2018-05-11T16:32:29.190Z,99873.03
2018-05-11T16:36:31.653Z,99876.89
2018-05-11T16:40:34.186Z,99878.72
2018-05-11T16:44:36.646Z,99882.55
2018-05-11T16:48:39.123Z,99877.88
2018-05-11T16:52:41.617Z,99874.08
2018-05-11T16:56:44.099Z,99880.94
2018-05-11T17:00:46.581Z,99880.72
2018-05-11T17:04:49.087Z,99873.35
2018-05-11T17:08:51.552Z,99869.47
2018-05-11T17:12:54.039Z,99867.03
2018-05-11T17:16:56.539Z,99867.97
2018-05-11T17:20:58.999Z,99871.16
2018-05-11T17:25:01.484Z,99873.92
2018-05-11T17:29:03.979Z,99868.59
2018-05-11T17:33:06.459Z,99870.45
2018-05-11T17:37:08.937Z,99862.94
2018-05-11T17:41:11.425Z,99863.58
2018-05-11T17:45:13.897Z,99856.33
2018-05-11T17:49:16.404Z,99859.25
2018-05-11T17:53:18.945Z,99859.97
2018-05-11T17:57:21.436Z,99857.50
2018-05-11T18:01:23.938Z,99857.74
2018-05-11T18:05:26.423Z,99857.95
2018-05-11T18:09:28.920Z,99854.98
2018-05-11T18:13:31.388Z,99859.77
2018-05-11T18:17:33.872Z,99859.23
2018-05-11T18:21:36.335Z,99865.28
2018-05-11T18:25:38.844Z,99856.89
2018-05-11T18:29:41.330Z,99858.92
2018-05-11T18:33:43.832Z,99860.02
2018-05-11T18:37:46.331Z,99856.67
2018-05-11T18:41:48.821Z,99858.27
2018-05-11T18:45:51.275Z,99866.23
2018-05-11T18:49:53.778Z,99869.63
2018-05-11T18:53:56.760Z,99869.14
2018-05-11T18:57:58.761Z,99877.52
2018-05-11T19:02:01.263Z,99881.38
2018-05-11T19:06:03.755Z,99883.14
2018-05-11T19:10:06.260Z,99885.63
2018-05-11T19:14:08.777Z,99886.36
2018-05-11T19:18:11.277Z,99886.17
2018-05-11T19:22:13.744Z,99891.03
2018-05-11T19:26:16.243Z,99897.13
2018-05-11T19:30:18.713Z,99895.59
2018-05-11T19:34:21.212Z,99891.77
2018-05-11T19:38:23.727Z,99894.20
2018-05-11T19:42:26.203Z,99900.72
2018-05-11T19:46:28.690Z,99902.66
2018-05-11T19:50:31.199Z,99913.11
2018-05-11T19:54:33.691Z,99904.34
2018-05-11T19:58:36.188Z,99909.55
2018-05-11T20:02:38.683Z,99904.09
2018-05-11T20:06:42.039Z,99904.36
2018-05-11T20:10:44.535Z,99904.12
2018-05-11T20:14:47.018Z,99905.89
2018-05-11T20:18:49.518Z,99910.22
2018-05-11T20:22:52.015Z,99918.84
2018-05-11T20:26:54.513Z,99915.42
2018-05-11T20:30:57.010Z,99923.73
2018-05-11T20:34:59.470Z,99927.11
2018-05-11T20:39:01.962Z,99928.22
2018-05-11T20:43:04.457Z,99928.87
2018-05-11T20:47:06.957Z,99941.48
2018-05-11T20:51:09.428Z,99936.72
2018-05-11T20:55:11.931Z,99939.70
2018-05-11T20:59:14.397Z,99940.77
2018-05-11T21:03:16.897Z,99941.28
2018-05-11T21:07:19.386Z,99935.13
2018-05-11T21:11:21.889Z,99943.26
2018-05-11T21:15:24.350Z,99944.31
2018-05-11T21:19:26.837Z,99936.44
2018-05-11T21:23:29.331Z,99937.95
2018-05-11T21:27:31.838Z,99937.64
2018-05-11T21:31:34.324Z,99937.30
2018-05-11T21:35:36.807Z,99942.89
2018-05-11T21:39:39.293Z,99941.38
2018-05-11T21:43:41.803Z,99932.16
2018-05-11T21:47:44.287Z,99940.33
2018-05-11T21:51:46.752Z,99937.03
2018-05-11T21:55:49.240Z,99927.56
2018-05-11T21:59:51.729Z,99929.42
2018-05-11T22:03:54.198Z,99925.60
2018-05-11T22:07:56.698Z,99930.69
2018-05-11T22:11:59.223Z,99930.75
2018-05-11T22:16:01.803Z,99935.70
2018-05-11T22:20:04.277Z,99940.27
2018-05-11T22:24:06.772Z,99940.02
2018-05-11T22:28:09.263Z,99938.48
2018-05-11T22:32:11.752Z,99937.71
2018-05-11T22:36:14.243Z,99934.73
2018-05-11T22:40:16.740Z,99929.14
2018-05-11T22:44:19.228Z,99929.78
2018-05-11T22:48:21.711Z,99938.75
2018-05-11T22:52:24.204Z,99930.88
2018-05-11T22:56:26.681Z,99930.57
2018-05-11T23:00:43.995Z,99929.41
2018-05-11T23:04:46.479Z,99918.89
2018-05-11T23:08:48.971Z,99925.22
2018-05-11T23:12:51.459Z,99925.78
2018-05-11T23:16:53.948Z,99925.94
2018-05-11T23:20:56.433Z,99923.79
2018-05-11T23:24:58.926Z,99925.80
2018-05-11T23:29:01.423Z,99916.62
2018-05-11T23:33:03.887Z,99912.51
2018-05-11T23:37:06.385Z,99912.28
2018-05-11T23:41:08.883Z,99903.88
2018-05-11T23:45:11.398Z,99912.86
2018-05-11T23:49:13.927Z,99920.51
2018-05-11T23:53:16.426Z,99914.86
2018-05-11T23:57:20.033Z,99919.41
